createdAt,value
2022-12-11T00:05:51.564Z,1.84
2022-12-11T00:11:44.896Z,1.90
2022-12-11T00:17:37.576Z,1.90
2022-12-11T00:23:30.646Z,1.92
2022-12-11T00:29:23.598Z,1.90
2022-12-11T00:35:16.405Z,1.83
2022-12-11T00:41:08.724Z,1.82
2022-12-11T00:47:01.807Z,1.79
2022-12-11T00:52:54.676Z,1.67
2022-12-11T00:58:48.637Z,1.64
2022-12-11T01:04:42.723Z,1.56
2022-12-11T01:10:35.330Z,1.59
2022-12-11T01:16:27.807Z,1.70
2022-12-11T01:22:21.236Z,1.79
2022-12-11T01:28:13.877Z,1.85
2022-12-11T01:34:06.563Z,1.77
2022-12-11T01:39:58.715Z,1.74
2022-12-11T01:45:50.431Z,1.70
2022-12-11T01:51:49.780Z,1.57
2022-12-11T01:57:44.497Z,1.73
2022-12-11T02:03:36.947Z,1.71
2022-12-11T02:09:35.496Z,1.65
2022-12-11T02:15:49.845Z,1.61
2022-12-11T02:21:47.945Z,1.64
2022-12-11T02:27:47.516Z,1.65
2022-12-11T02:33:52.136Z,1.55
2022-12-11T02:39:47.518Z,1.49
2022-12-11T02:45:42.506Z,1.60
2022-12-11T02:51:40.255Z,1.63
2022-12-11T02:57:51.476Z,1.55
2022-12-11T03:03:43.878Z,1.50
2022-12-11T03:09:35.976Z,1.48
2022-12-11T03:16:14.829Z,1.43
2022-12-11T03:22:33.915Z,1.42
2022-12-11T03:28:44.807Z,1.34
2022-12-11T03:34:40.926Z,1.39
2022-12-11T03:40:35.813Z,1.31
2022-12-11T03:46:32.176Z,1.29
2022-12-11T03:52:27.619Z,1.34
2022-12-11T03:58:19.938Z,1.32
2022-12-11T04:04:12.212Z,1.22
2022-12-11T04:10:07.566Z,1.18
2022-12-11T04:16:01.916Z,1.24
2022-12-11T04:22:12.674Z,0.95
2022-12-11T04:28:05.275Z,0.88
2022-12-11T04:33:57.539Z,0.80
2022-12-11T04:39:50.526Z,0.74
2022-12-11T04:45:44.198Z,0.70
2022-12-11T04:51:36.305Z,0.87
2022-12-11T04:57:30.196Z,0.84
2022-12-11T05:03:22.674Z,0.94
2022-12-11T05:09:16.915Z,0.73
2022-12-11T05:15:11.676Z,0.79
2022-12-11T05:21:13.494Z,0.71
2022-12-11T05:27:07.236Z,0.77
2022-12-11T05:32:59.216Z,0.79
2022-12-11T05:38:53.296Z,0.75
2022-12-11T05:44:46.677Z,0.71
2022-12-11T05:50:39.195Z,0.69
2022-12-11T05:56:34.797Z,0.67
2022-12-11T06:02:27.442Z,0.64
2022-12-11T06:08:20.485Z,0.65
2022-12-11T06:14:14.123Z,0.71
2022-12-11T06:20:06.887Z,0.59
2022-12-11T06:25:59.418Z,0.61
2022-12-11T06:31:51.608Z,0.67
2022-12-11T06:37:44.512Z,0.60
2022-12-11T06:43:39.057Z,0.59
2022-12-11T06:49:31.555Z,0.59
2022-12-11T06:55:24.116Z,0.61
2022-12-11T07:01:25.109Z,0.57
2022-12-11T07:07:17.535Z,0.56
2022-12-11T07:13:10.498Z,0.68
2022-12-11T07:19:02.585Z,0.75
2022-12-11T07:24:54.396Z,0.74
2022-12-11T07:30:46.705Z,0.81
2022-12-11T07:36:39.865Z,0.67
2022-12-11T07:42:32.406Z,0.71
2022-12-11T07:48:24.796Z,0.68
2022-12-11T07:54:18.725Z,0.71
2022-12-11T08:00:12.135Z,0.73
2022-12-11T08:06:09.297Z,0.83
2022-12-11T08:12:01.724Z,0.83
2022-12-11T08:17:54.987Z,0.89
2022-12-11T08:23:48.795Z,0.94
2022-12-11T08:29:41.736Z,0.89
2022-12-11T08:35:40.674Z,0.86
2022-12-11T08:41:33.031Z,0.83
2022-12-11T08:47:26.099Z,0.75
2022-12-11T08:53:19.086Z,0.87
2022-12-11T08:59:11.846Z,0.90
2022-12-11T09:05:08.203Z,0.91
2022-12-11T09:11:11.251Z,0.90
2022-12-11T09:17:05.857Z,0.96
2022-12-11T09:22:59.865Z,1.02
2022-12-11T09:28:54.015Z,0.89
2022-12-11T09:34:51.555Z,0.87
2022-12-11T09:40:43.834Z,0.99
2022-12-11T09:46:38.402Z,1.07
2022-12-11T09:52:35.851Z,1.08
2022-12-11T09:58:58.765Z,1.09
2022-12-11T10:05:04.387Z,1.23
2022-12-11T10:10:56.946Z,1.21
2022-12-11T10:17:00.271Z,1.28
2022-12-11T10:22:55.426Z,1.25
2022-12-11T10:28:48.262Z,1.19
2022-12-11T10:34:46.846Z,1.31
2022-12-11T10:40:42.886Z,1.25
2022-12-11T10:46:37.449Z,1.25
2022-12-11T10:52:35.448Z,1.28
2022-12-11T10:58:34.419Z,1.47
2022-12-11T11:04:45.075Z,1.45
2022-12-11T11:10:36.896Z,1.62
2022-12-11T11:16:29.513Z,1.56
2022-12-11T11:22:21.697Z,1.35
2022-12-11T11:28:21.440Z,1.39
2022-12-11T11:34:22.415Z,1.36
2022-12-11T11:40:24.685Z,1.14
2022-12-11T11:46:31.084Z,1.21
2022-12-11T11:52:34.894Z,1.33
2022-12-11T11:58:42.126Z,1.40
2022-12-11T12:04:37.106Z,1.30
2022-12-11T12:10:46.897Z,1.23
2022-12-11T12:16:59.801Z,1.22
2022-12-11T12:22:58.215Z,1.06
2022-12-11T12:29:21.220Z,1.11
2022-12-11T12:35:34.697Z,1.08
2022-12-11T12:41:45.140Z,1.00
2022-12-11T12:47:38.938Z,0.88
2022-12-11T12:53:35.126Z,1.00
2022-12-11T12:59:28.197Z,1.04
2022-12-11T13:05:23.127Z,0.64
2022-12-11T13:11:18.278Z,0.90
2022-12-11T13:17:22.655Z,0.77
2022-12-11T13:23:19.668Z,0.68
2022-12-11T13:29:35.745Z,0.69
2022-12-11T13:35:28.925Z,0.65
2022-12-11T13:41:23.506Z,0.60
2022-12-11T13:47:17.589Z,0.53
2022-12-11T13:53:24.224Z,0.53
2022-12-11T13:59:29.198Z,0.57
2022-12-11T14:05:21.955Z,0.49
2022-12-11T14:11:39.405Z,0.34
2022-12-11T14:17:34.539Z,0.33
2022-12-11T14:23:30.033Z,0.10
2022-12-11T14:29:27.017Z,0.25
2022-12-11T14:35:35.501Z,0.13
2022-12-11T14:42:00.246Z,0.03
2022-12-11T14:47:55.822Z,0.13
2022-12-11T14:53:51.254Z,0.12
2022-12-11T14:59:51.065Z,-0.05
2022-12-11T15:05:52.755Z,-0.05
2022-12-11T15:11:47.485Z,0.08
2022-12-11T15:17:40.555Z,0.24
2022-12-11T15:23:37.527Z,0.34
2022-12-11T15:29:39.067Z,0.21
2022-12-11T15:35:28.297Z,-0.04
2022-12-11T15:41:21.786Z,-0.03
2022-12-11T15:47:15.718Z,-0.09
2022-12-11T15:53:08.095Z,-0.14
2022-12-11T15:59:06.541Z,-0.12
2022-12-11T16:05:00.208Z,-0.02
2022-12-11T16:10:55.345Z,-0.08
2022-12-11T16:16:49.626Z,-0.04
2022-12-11T16:22:42.197Z,-0.22
2022-12-11T16:28:36.209Z,-0.22
2022-12-11T16:34:29.246Z,-0.17
2022-12-11T16:40:22.136Z,-0.09
2022-12-11T16:46:19.792Z,-0.07
2022-12-11T16:52:16.436Z,-0.14
2022-12-11T16:58:16.537Z,-0.09
2022-12-11T17:04:10.156Z,0.01
2022-12-11T17:10:06.618Z,0.14
2022-12-11T17:15:59.465Z,0.17
2022-12-11T17:21:55.426Z,0.16
2022-12-11T17:27:49.847Z,0.19
2022-12-11T17:33:42.252Z,0.23
2022-12-11T17:39:34.917Z,0.22
2022-12-11T17:45:26.946Z,0.28
2022-12-11T17:51:24.716Z,0.15
2022-12-11T17:57:17.229Z,0.23
2022-12-11T18:03:10.605Z,0.23
2022-12-11T18:09:04.246Z,0.24
2022-12-11T18:15:01.185Z,0.18
2022-12-11T18:20:53.158Z,0.20
2022-12-11T18:26:45.755Z,0.13
2022-12-11T18:32:37.874Z,0.09
2022-12-11T18:38:30.458Z,0.00
2022-12-11T18:44:23.174Z,-0.05
2022-12-11T18:50:15.436Z,-0.08
2022-12-11T18:56:10.905Z,-0.09
2022-12-11T19:02:03.657Z,-0.24
2022-12-11T19:07:58.800Z,-0.22
2022-12-11T19:13:56.837Z,-0.18
2022-12-11T19:19:49.427Z,-0.22
2022-12-11T19:25:44.155Z,-0.16
2022-12-11T19:31:40.195Z,-0.24
2022-12-11T19:37:38.690Z,-0.16
2022-12-11T19:43:33.782Z,-0.17
2022-12-11T19:49:30.055Z,-0.15
2022-12-11T19:55:23.646Z,-0.13
2022-12-11T20:01:26.166Z,-0.11
2022-12-11T20:07:18.396Z,-0.06
2022-12-11T20:13:12.555Z,-0.15
2022-12-11T20:19:06.756Z,-0.09
2022-12-11T20:25:03.828Z,-0.07
2022-12-11T20:31:07.618Z,-0.17
2022-12-11T20:37:01.435Z,-0.11
2022-12-11T20:42:55.166Z,-0.10
2022-12-11T20:48:50.685Z,-0.05
2022-12-11T20:54:46.706Z,-0.07
2022-12-11T21:00:39.981Z,-0.13
2022-12-11T21:06:35.456Z,-0.09
2022-12-11T21:12:31.488Z,-0.14
2022-12-11T21:18:25.206Z,-0.13
2022-12-11T21:24:23.787Z,-0.18
2022-12-11T21:30:17.117Z,-0.12
2022-12-11T21:36:12.267Z,-0.15
2022-12-11T21:42:04.925Z,-0.16
2022-12-11T21:47:57.765Z,-0.08
2022-12-11T21:53:52.057Z,-0.17
2022-12-11T21:59:45.794Z,-0.24
2022-12-11T22:05:38.406Z,-0.24
2022-12-11T22:11:34.255Z,-0.11
2022-12-11T22:17:28.835Z,-0.17
2022-12-11T22:23:09.119Z,-0.09
2022-12-11T22:28:49.836Z,-0.14
2022-12-11T22:34:30.605Z,-0.14
2022-12-11T22:40:11.085Z,-0.08
2022-12-11T22:45:51.233Z,-0.07
2022-12-11T22:51:31.957Z,-0.18
2022-12-11T22:57:11.920Z,0.86
2022-12-11T23:02:52.733Z,0.83
2022-12-11T23:08:32.553Z,0.57
2022-12-11T23:14:15.634Z,0.94
2022-12-11T23:20:08.405Z,0.99
2022-12-11T23:26:01.121Z,1.04
2022-12-11T23:31:53.645Z,1.02
2022-12-11T23:37:46.757Z,1.10
2022-12-11T23:43:41.955Z,1.11
2022-12-11T23:49:34.087Z,0.98
2022-12-11T23:55:27.751Z,1.01
